createdAt,value
2023-05-24T00:02:20.190Z,99453.31
2023-05-24T00:04:49.552Z,99458.34
2023-05-24T00:07:16.679Z,99459.88
2023-05-24T00:09:43.699Z,99460.16
2023-05-24T00:12:10.971Z,99440.22
2023-05-24T00:14:38.088Z,99446.00
2023-05-24T00:17:05.447Z,99451.09
2023-05-24T00:19:32.384Z,99446.00
2023-05-24T00:21:59.538Z,99448.75
2023-05-24T00:24:26.490Z,99440.78
2023-05-24T00:26:53.474Z,99448.88
2023-05-24T00:29:21.390Z,99450.34
2023-05-24T00:31:48.367Z,99445.41
2023-05-24T00:34:15.282Z,99455.28
2023-05-24T00:36:42.137Z,99448.13
2023-05-24T00:39:08.970Z,99449.88
2023-05-24T00:41:35.914Z,99449.69
2023-05-24T00:44:03.189Z,99445.56
2023-05-24T00:46:33.169Z,99449.13
2023-05-24T00:49:01.601Z,99449.13
2023-05-24T00:51:28.855Z,99452.00
2023-05-24T00:54:00.420Z,99446.16
2023-05-24T00:56:28.171Z,99447.94
2023-05-24T00:58:56.247Z,99450.25
2023-05-24T01:01:26.893Z,99448.81
2023-05-24T01:03:54.517Z,99447.84
2023-05-24T01:06:22.131Z,99433.03
2023-05-24T01:09:16.447Z,99440.47
2023-05-24T01:12:28.045Z,99434.84
2023-05-24T01:15:11.339Z,99439.38
2023-05-24T01:17:51.894Z,99435.28
2023-05-24T01:20:20.902Z,99435.72
2023-05-24T01:23:06.612Z,99427.44
2023-05-24T01:25:54.115Z,99436.72
2023-05-24T01:28:22.500Z,99433.81
2023-05-24T01:30:54.742Z,99434.81
2023-05-24T01:33:23.839Z,99426.59
2023-05-24T01:35:50.766Z,99437.09
2023-05-24T01:38:17.592Z,99433.97
2023-05-24T01:40:47.432Z,99438.66
2023-05-24T01:43:27.384Z,99441.22
2023-05-24T01:46:13.944Z,99433.47
2023-05-24T01:49:00.784Z,99437.13
2023-05-24T01:51:36.787Z,99432.78
2023-05-24T01:54:06.077Z,99433.84
2023-05-24T01:56:34.652Z,99443.84
2023-05-24T01:59:03.443Z,99431.47
2023-05-24T02:01:31.995Z,99434.63
2023-05-24T02:03:59.662Z,99431.41
2023-05-24T02:06:26.518Z,99429.22
2023-05-24T02:08:53.718Z,99443.00
2023-05-24T02:11:21.660Z,99444.81
2023-05-24T02:13:48.555Z,99449.16
2023-05-24T02:16:15.412Z,99450.94
2023-05-24T02:18:44.599Z,99451.75
2023-05-24T02:21:12.151Z,99452.38
2023-05-24T02:23:39.203Z,99450.94
2023-05-24T02:26:07.129Z,99458.53
2023-05-24T02:28:34.052Z,99452.97
2023-05-24T02:31:01.252Z,99449.75
2023-05-24T02:33:29.961Z,99461.25
2023-05-24T02:35:57.051Z,99460.31
2023-05-24T02:38:23.893Z,99468.41
2023-05-24T02:40:50.891Z,99471.91
2023-05-24T02:43:17.892Z,99466.97
2023-05-24T02:45:44.726Z,99471.78
2023-05-24T02:48:11.604Z,99458.88
2023-05-24T02:50:38.525Z,99474.81
2023-05-24T02:53:05.686Z,99470.66
2023-05-24T02:55:32.763Z,99474.88
2023-05-24T02:58:00.209Z,99477.41
2023-05-24T03:00:27.184Z,99471.28
2023-05-24T03:02:56.953Z,99469.47
2023-05-24T03:05:23.953Z,99477.63
2023-05-24T03:07:50.830Z,99477.09
2023-05-24T03:10:18.218Z,99476.50
2023-05-24T03:12:45.146Z,99478.03
2023-05-24T03:15:12.213Z,99466.22
2023-05-24T03:17:41.845Z,99482.25
2023-05-24T03:20:09.257Z,99472.91
2023-05-24T03:22:36.310Z,99474.69
2023-05-24T03:25:04.256Z,99476.78
2023-05-24T03:27:31.146Z,99480.84
2023-05-24T03:29:59.402Z,99475.78
2023-05-24T03:32:30.067Z,99477.47
2023-05-24T03:34:59.512Z,99470.44
2023-05-24T03:37:26.997Z,99473.25
2023-05-24T03:39:54.406Z,99471.88
2023-05-24T03:42:45.141Z,99481.03
2023-05-24T03:45:12.759Z,99482.38
2023-05-24T03:47:39.742Z,99482.31
2023-05-24T03:50:07.061Z,99480.66
2023-05-24T03:52:37.048Z,99476.94
2023-05-24T03:55:04.092Z,99482.09
2023-05-24T03:57:31.058Z,99482.81
2023-05-24T03:59:58.038Z,99483.75
2023-05-24T04:02:25.083Z,99482.03
2023-05-24T04:04:54.334Z,99483.09
2023-05-24T04:07:24.589Z,99488.06
2023-05-24T04:09:51.436Z,99488.38
2023-05-24T04:12:18.297Z,99489.38
2023-05-24T04:14:45.278Z,99492.03
2023-05-24T04:17:13.386Z,99500.31
2023-05-24T04:19:40.807Z,99505.00
2023-05-24T04:22:07.993Z,99506.75
2023-05-24T04:24:37.476Z,99505.84
2023-05-24T04:27:08.187Z,99508.78
2023-05-24T04:29:35.664Z,99510.78
2023-05-24T04:32:02.603Z,99508.88
2023-05-24T04:34:33.984Z,99505.53
2023-05-24T04:37:01.050Z,99513.75
2023-05-24T04:39:32.114Z,99511.56
2023-05-24T04:42:00.721Z,99512.16
2023-05-24T04:44:27.793Z,99515.50
2023-05-24T04:46:54.707Z,99509.97
2023-05-24T04:49:22.786Z,99503.72
2023-05-24T04:51:49.852Z,99500.41
2023-05-24T04:54:18.261Z,99501.06
2023-05-24T04:56:45.156Z,99507.88
2023-05-24T04:59:12.229Z,99517.25
2023-05-24T05:01:39.639Z,99517.66
2023-05-24T05:04:08.054Z,99506.97
2023-05-24T05:06:38.806Z,99506.44
2023-05-24T05:09:09.578Z,99500.69
2023-05-24T05:11:37.354Z,99501.84
2023-05-24T05:14:09.762Z,99504.63
2023-05-24T05:16:37.140Z,99511.97
2023-05-24T05:19:04.876Z,99513.47
2023-05-24T05:21:33.234Z,99515.47
2023-05-24T05:24:01.274Z,99510.28
2023-05-24T05:26:29.069Z,99518.34
2023-05-24T05:28:57.606Z,99515.00
2023-05-24T05:31:24.946Z,99522.38
2023-05-24T05:33:51.854Z,99521.88
2023-05-24T05:36:19.212Z,99522.34
2023-05-24T05:38:48.334Z,99520.88
2023-05-24T05:41:15.206Z,99516.19
2023-05-24T05:43:42.090Z,99519.53
2023-05-24T05:46:09.091Z,99520.03
2023-05-24T05:48:36.017Z,99518.03
2023-05-24T05:51:02.936Z,99511.88
2023-05-24T05:53:32.972Z,99517.38
2023-05-24T05:55:59.852Z,99519.44
2023-05-24T05:58:26.683Z,99521.28
2023-05-24T06:00:53.549Z,99517.13
2023-05-24T06:03:20.707Z,99526.31
2023-05-24T06:05:47.595Z,99523.59
2023-05-24T06:08:15.630Z,99524.56
2023-05-24T06:10:42.793Z,99528.03
2023-05-24T06:13:09.844Z,99525.84
2023-05-24T06:15:37.765Z,99520.56
2023-05-24T06:18:05.320Z,99522.53
2023-05-24T06:20:32.291Z,99530.09
2023-05-24T06:23:00.238Z,99530.44
2023-05-24T06:25:30.811Z,99532.75
2023-05-24T06:27:57.804Z,99523.78
2023-05-24T06:30:26.000Z,99538.00
2023-05-24T06:32:53.200Z,99528.13
2023-05-24T06:35:20.258Z,99530.94
2023-05-24T06:37:47.157Z,99539.34
2023-05-24T06:40:14.139Z,99537.59
2023-05-24T06:42:41.455Z,99538.22
2023-05-24T06:45:09.367Z,99536.88
2023-05-24T06:47:37.043Z,99537.09
2023-05-24T06:50:05.522Z,99534.06
2023-05-24T06:52:32.414Z,99549.56
2023-05-24T06:54:59.350Z,99542.19
2023-05-24T06:57:27.112Z,99540.94
2023-05-24T06:59:54.014Z,99540.78
2023-05-24T07:02:26.690Z,99537.91
2023-05-24T07:04:53.871Z,99544.78
2023-05-24T07:07:21.146Z,99545.91
2023-05-24T07:09:47.962Z,99538.47
2023-05-24T07:12:14.967Z,99539.59
2023-05-24T07:14:41.827Z,99535.78
2023-05-24T07:17:08.847Z,99536.06
2023-05-24T07:19:36.204Z,99535.75
2023-05-24T07:22:03.207Z,99527.06
2023-05-24T07:24:30.041Z,99537.78
2023-05-24T07:26:57.762Z,99537.97
2023-05-24T07:29:26.103Z,99541.66
2023-05-24T07:31:56.296Z,99534.97
2023-05-24T07:34:24.025Z,99536.75
2023-05-24T07:36:50.884Z,99540.34
2023-05-24T07:39:17.870Z,99540.03
2023-05-24T07:41:45.020Z,99551.50
2023-05-24T07:44:13.652Z,99543.53
2023-05-24T07:46:40.655Z,99549.25
2023-05-24T07:49:07.623Z,99544.03
2023-05-24T07:51:34.483Z,99546.19
2023-05-24T07:54:01.609Z,99546.34
2023-05-24T07:56:28.510Z,99549.84
2023-05-24T07:58:59.565Z,99555.50
2023-05-24T08:01:26.428Z,99545.38
2023-05-24T08:03:53.511Z,99552.50
2023-05-24T08:06:20.650Z,99545.28
2023-05-24T08:08:47.866Z,99549.03
2023-05-24T08:11:14.721Z,99548.09
2023-05-24T08:13:41.691Z,99537.53
2023-05-24T08:16:08.670Z,99544.41
2023-05-24T08:18:35.654Z,99544.19
2023-05-24T08:21:02.648Z,99540.75
2023-05-24T08:23:30.131Z,99532.66
2023-05-24T08:26:00.204Z,99542.75
2023-05-24T08:28:28.175Z,99547.16
2023-05-24T08:30:55.795Z,99539.56
2023-05-24T08:33:23.198Z,99536.28
2023-05-24T08:35:53.121Z,99531.94
2023-05-24T08:38:20.111Z,99538.72
2023-05-24T08:40:48.337Z,99539.41
2023-05-24T08:43:15.756Z,99534.69
2023-05-24T08:45:43.534Z,99533.44
2023-05-24T08:48:11.147Z,99543.22
2023-05-24T08:50:38.218Z,99538.81
2023-05-24T08:53:07.042Z,99538.81
2023-05-24T08:55:35.390Z,99542.47
2023-05-24T08:58:02.317Z,99542.69
2023-05-24T09:00:29.244Z,99546.63
2023-05-24T09:02:58.233Z,99554.69
2023-05-24T09:05:26.153Z,99547.53
2023-05-24T09:07:55.838Z,99546.34
2023-05-24T09:10:24.478Z,99545.00
2023-05-24T09:12:57.731Z,99544.47
2023-05-24T09:15:25.056Z,99541.50
2023-05-24T09:17:52.019Z,99548.34
2023-05-24T09:20:20.258Z,99540.59
2023-05-24T09:22:52.232Z,99544.78
2023-05-24T09:25:23.590Z,99547.34
2023-05-24T09:27:52.295Z,99544.34
2023-05-24T09:30:20.003Z,99543.25
2023-05-24T09:33:00.368Z,99541.16
2023-05-24T09:35:28.473Z,99540.47
2023-05-24T09:37:57.555Z,99542.06
2023-05-24T09:40:24.628Z,99536.50
2023-05-24T09:43:08.682Z,99532.47
2023-05-24T09:45:43.275Z,99536.41
2023-05-24T09:48:12.393Z,99531.69
2023-05-24T09:50:39.502Z,99540.00
2023-05-24T09:53:06.696Z,99541.22
2023-05-24T09:55:37.350Z,99541.66
2023-05-24T09:58:08.808Z,99530.25
2023-05-24T10:00:40.034Z,99533.50
2023-05-24T10:03:11.146Z,99536.03
2023-05-24T10:05:39.286Z,99527.47
2023-05-24T10:08:06.304Z,99525.16
2023-05-24T10:10:34.134Z,99534.31
2023-05-24T10:13:02.473Z,99531.19
2023-05-24T10:15:30.882Z,99525.41
2023-05-24T10:17:59.269Z,99522.69
2023-05-24T10:20:26.992Z,99517.84
2023-05-24T10:23:02.053Z,99509.19
2023-05-24T10:25:30.090Z,99495.41
2023-05-24T10:28:01.559Z,99509.00
2023-05-24T10:30:42.725Z,99512.69
2023-05-24T10:33:14.128Z,99502.25
2023-05-24T10:35:43.255Z,99508.50
2023-05-24T10:38:11.018Z,99511.16
2023-05-24T10:40:43.963Z,99509.59
2023-05-24T10:43:11.248Z,99511.94
2023-05-24T10:45:40.318Z,99515.78
2023-05-24T10:48:13.596Z,99510.88
2023-05-24T10:50:42.083Z,99509.44
2023-05-24T10:53:19.637Z,99508.75
2023-05-24T10:55:57.410Z,99519.53
2023-05-24T10:58:42.946Z,99503.72
2023-05-24T11:01:27.252Z,99504.38
2023-05-24T11:04:06.969Z,99504.22
2023-05-24T11:07:04.633Z,99509.59
2023-05-24T11:09:33.101Z,99512.69
2023-05-24T11:12:07.648Z,99511.69
2023-05-24T11:14:39.657Z,99504.22
2023-05-24T11:17:08.462Z,99500.88
2023-05-24T11:19:37.722Z,99501.72
2023-05-24T11:22:08.212Z,99504.03
2023-05-24T11:24:35.557Z,99500.63
2023-05-24T11:27:02.697Z,99505.84
2023-05-24T11:29:30.589Z,99497.81
2023-05-24T11:32:09.261Z,99504.34
2023-05-24T11:34:36.408Z,99505.09
2023-05-24T11:37:05.538Z,99498.16
2023-05-24T11:39:34.537Z,99496.63
2023-05-24T11:42:04.209Z,99502.94
2023-05-24T11:44:32.858Z,99502.94
2023-05-24T11:47:04.670Z,99504.97
2023-05-24T11:49:31.604Z,99503.50
2023-05-24T11:51:59.644Z,99497.47
2023-05-24T11:54:31.905Z,99496.06
2023-05-24T11:56:58.833Z,99489.22
2023-05-24T11:59:27.264Z,99484.19
2023-05-24T12:02:03.816Z,99487.78
2023-05-24T12:04:32.524Z,99485.78
2023-05-24T12:06:59.757Z,99486.84
2023-05-24T12:09:27.779Z,99482.41
2023-05-24T12:11:55.456Z,99487.28
2023-05-24T12:14:28.800Z,99479.31
2023-05-24T12:16:57.282Z,99484.81
2023-05-24T12:19:35.150Z,99492.59
2023-05-24T12:22:07.634Z,99483.97
2023-05-24T12:24:35.449Z,99483.75
2023-05-24T12:27:07.593Z,99492.38
2023-05-24T12:29:36.618Z,99499.78
2023-05-24T12:32:04.518Z,99499.25
2023-05-24T12:34:31.428Z,99500.81
2023-05-24T12:36:59.500Z,99501.09
2023-05-24T12:39:37.623Z,99503.16
2023-05-24T12:42:05.162Z,99512.72
2023-05-24T12:44:35.132Z,99519.22
2023-05-24T12:47:04.926Z,99515.88
2023-05-24T12:49:32.289Z,99524.34
2023-05-24T12:51:59.664Z,99521.78
2023-05-24T12:54:27.527Z,99515.22
2023-05-24T12:56:56.978Z,99513.25
2023-05-24T12:59:26.054Z,99511.66
2023-05-24T13:01:53.553Z,99519.09
2023-05-24T13:04:23.267Z,99518.97
2023-05-24T13:06:50.294Z,99522.50
2023-05-24T13:09:19.210Z,99526.22
2023-05-24T13:11:46.749Z,99527.31
2023-05-24T13:14:15.641Z,99541.78
2023-05-24T13:16:42.915Z,99548.13
2023-05-24T13:19:10.486Z,99548.31
2023-05-24T13:21:38.227Z,99530.31
2023-05-24T13:24:06.548Z,99518.72
2023-05-24T13:26:38.165Z,99525.00
2023-05-24T13:31:38.275Z,99542.63
2023-05-24T13:34:06.239Z,99552.78
2023-05-24T13:36:33.708Z,99561.22
2023-05-24T13:41:30.964Z,99565.75
2023-05-24T13:43:57.996Z,99566.03
2023-05-24T13:46:25.036Z,99578.75
2023-05-24T13:48:52.426Z,99581.75
2023-05-24T13:51:20.010Z,99587.03
2023-05-24T13:53:48.125Z,99600.19
2023-05-24T13:56:16.052Z,99601.31
2023-05-24T13:58:43.069Z,99597.78
2023-05-24T14:01:10.639Z,99603.53
2023-05-24T14:03:39.737Z,99602.84
2023-05-24T14:06:08.184Z,99596.50
2023-05-24T14:08:35.639Z,99596.09
2023-05-24T14:11:02.551Z,99607.06
2023-05-24T14:15:59.485Z,99620.75
2023-05-24T14:18:26.890Z,99616.47
2023-05-24T14:20:53.894Z,99603.13
2023-05-24T14:23:21.042Z,99601.00
2023-05-24T14:25:47.934Z,99596.66
2023-05-24T14:28:14.819Z,99591.16
2023-05-24T14:30:42.244Z,99586.91
2023-05-24T14:33:11.516Z,99574.69
2023-05-24T14:35:40.051Z,99569.91
2023-05-24T14:38:09.463Z,99572.91
2023-05-24T14:40:39.076Z,99574.41
2023-05-24T14:43:07.424Z,99573.72
2023-05-24T14:45:34.397Z,99571.50
2023-05-24T14:48:02.630Z,99574.28
2023-05-24T14:50:29.821Z,99575.28
2023-05-24T14:52:56.854Z,99569.09
2023-05-24T14:55:23.919Z,99568.44
2023-05-24T14:57:54.193Z,99571.16
2023-05-24T15:00:23.589Z,99558.72
2023-05-24T15:02:51.523Z,99553.53
2023-05-24T15:05:18.551Z,99558.69
2023-05-24T15:07:45.466Z,99544.59
2023-05-24T15:10:12.407Z,99543.69
2023-05-24T15:12:39.268Z,99542.25
2023-05-24T15:15:07.917Z,99534.09
2023-05-24T15:17:35.040Z,99527.84
2023-05-24T15:20:02.131Z,99524.19
2023-05-24T15:22:29.120Z,99528.19
2023-05-24T15:24:55.972Z,99514.28
2023-05-24T15:27:22.881Z,99513.66
2023-05-24T15:29:50.430Z,99510.22
2023-05-24T15:32:17.318Z,99509.63
2023-05-24T15:34:44.251Z,99502.78
2023-05-24T15:37:11.267Z,99491.78
2023-05-24T15:39:38.081Z,99492.25
2023-05-24T15:42:06.029Z,99490.78
2023-05-24T15:44:32.959Z,99488.69
2023-05-24T15:46:59.829Z,99482.19
2023-05-24T15:49:26.840Z,99489.06
2023-05-24T15:54:23.469Z,99485.63
2023-05-24T15:56:50.398Z,99484.44
2023-05-24T15:59:18.098Z,99483.81
2023-05-24T16:01:46.633Z,99494.72
2023-05-24T16:04:13.603Z,99481.41
2023-05-24T16:06:40.707Z,99484.19
2023-05-24T16:09:08.235Z,99492.50
2023-05-24T16:11:35.854Z,99490.66
2023-05-24T16:14:03.713Z,99483.53
2023-05-24T16:16:30.685Z,99483.81
2023-05-24T16:18:58.276Z,99492.03
2023-05-24T16:21:25.081Z,99493.81
2023-05-24T16:23:51.955Z,99488.16
2023-05-24T16:26:18.888Z,99487.41
2023-05-24T16:28:45.838Z,99491.22
2023-05-24T16:31:12.754Z,99486.94
2023-05-24T16:33:40.092Z,99496.28
2023-05-24T16:36:07.137Z,99497.41
2023-05-24T16:38:37.948Z,99491.31
2023-05-24T16:41:06.178Z,99496.94
2023-05-24T16:43:33.260Z,99492.91
2023-05-24T16:46:01.033Z,99507.16
2023-05-24T16:48:28.761Z,99494.94
2023-05-24T16:50:56.881Z,99509.19
2023-05-24T16:53:26.209Z,99502.09
2023-05-24T16:55:54.838Z,99508.44
2023-05-24T16:58:26.410Z,99508.44
2023-05-24T17:00:54.626Z,99508.63
2023-05-24T17:03:27.867Z,99519.72
2023-05-24T17:05:56.894Z,99513.59
2023-05-24T17:08:25.923Z,99518.81
2023-05-24T17:10:56.340Z,99529.84
2023-05-24T17:13:23.974Z,99525.22
2023-05-24T17:15:52.371Z,99520.22
2023-05-24T17:18:21.387Z,99532.06
2023-05-24T17:20:48.314Z,99524.31
2023-05-24T17:23:15.206Z,99523.63
2023-05-24T17:25:42.025Z,99533.88
2023-05-24T17:28:08.926Z,99530.44
2023-05-24T17:30:36.574Z,99535.09
2023-05-24T17:33:03.632Z,99532.72
2023-05-24T17:35:30.603Z,99529.28
2023-05-24T17:37:57.525Z,99535.63
2023-05-24T17:40:24.484Z,99537.56
2023-05-24T17:42:51.307Z,99540.06
2023-05-24T17:45:18.200Z,99537.25
2023-05-24T17:47:45.118Z,99535.56
2023-05-24T17:50:12.060Z,99543.81
2023-05-24T17:52:38.902Z,99542.25
2023-05-24T17:55:06.393Z,99543.03
2023-05-24T17:57:33.287Z,99549.25
2023-05-24T18:00:00.138Z,99547.25
2023-05-24T18:02:27.063Z,99543.41
2023-05-24T18:04:55.465Z,99547.94
2023-05-24T18:07:22.610Z,99555.47
2023-05-24T18:09:49.984Z,99553.72
2023-05-24T18:12:17.757Z,99561.28
2023-05-24T18:14:44.770Z,99571.78
2023-05-24T18:17:14.872Z,99562.28
2023-05-24T18:19:42.017Z,99564.31
2023-05-24T18:22:08.912Z,99562.16
2023-05-24T18:24:35.748Z,99567.38
2023-05-24T18:27:02.749Z,99569.28
2023-05-24T18:29:29.743Z,99560.41
2023-05-24T18:31:56.632Z,99569.00
2023-05-24T18:34:23.758Z,99567.50
2023-05-24T18:36:50.704Z,99561.47
2023-05-24T18:39:17.558Z,99578.88
2023-05-24T18:41:44.530Z,99580.41
2023-05-24T18:44:11.385Z,99586.13
2023-05-24T18:46:38.334Z,99590.47
2023-05-24T18:49:08.367Z,99597.16
2023-05-24T18:51:35.227Z,99599.66
2023-05-24T18:54:02.149Z,99596.97
2023-05-24T18:56:29.568Z,99597.31
2023-05-24T18:58:58.774Z,99593.28
2023-05-24T19:01:25.912Z,99600.47
2023-05-24T19:03:52.812Z,99606.84
2023-05-24T19:06:19.750Z,99608.38
2023-05-24T19:08:46.633Z,99606.03
2023-05-24T19:11:13.808Z,99603.34
2023-05-24T19:13:41.642Z,99606.34
2023-05-24T19:16:08.525Z,99613.91
2023-05-24T19:18:35.546Z,99620.06
2023-05-24T19:21:02.436Z,99623.91
2023-05-24T19:23:29.431Z,99627.78
2023-05-24T19:25:56.243Z,99630.78
2023-05-24T19:28:24.254Z,99625.75
2023-05-24T19:30:51.173Z,99631.75
2023-05-24T19:33:18.077Z,99623.03
2023-05-24T19:35:45.263Z,99630.03
2023-05-24T19:38:15.122Z,99631.41
2023-05-24T19:40:41.949Z,99628.06
2023-05-24T19:43:08.790Z,99634.44
2023-05-24T19:45:35.763Z,99634.72
2023-05-24T19:48:02.856Z,99635.06
2023-05-24T19:50:31.309Z,99648.00
2023-05-24T19:52:58.541Z,99641.47
2023-05-24T19:55:25.491Z,99635.28
2023-05-24T19:57:52.430Z,99639.56
2023-05-24T20:00:19.627Z,99643.88
2023-05-24T20:02:46.552Z,99637.19
2023-05-24T20:05:13.698Z,99638.66
2023-05-24T20:07:40.525Z,99640.66
2023-05-24T20:10:08.014Z,99644.66
2023-05-24T20:12:35.065Z,99645.53
2023-05-24T20:15:02.083Z,99651.53
2023-05-24T20:17:29.016Z,99643.50
2023-05-24T20:19:56.207Z,99650.84
2023-05-24T20:22:23.259Z,99647.97
2023-05-24T20:24:50.635Z,99644.28
2023-05-24T20:27:17.565Z,99645.94
2023-05-24T20:29:44.463Z,99639.59
2023-05-24T20:32:12.037Z,99645.47
2023-05-24T20:34:39.095Z,99638.63
2023-05-24T20:37:06.627Z,99645.66
2023-05-24T20:39:33.496Z,99639.09
2023-05-24T20:42:02.374Z,99638.09
2023-05-24T20:44:29.289Z,99632.63
2023-05-24T20:46:56.249Z,99641.63
2023-05-24T20:49:23.139Z,99635.78
2023-05-24T20:51:50.172Z,99630.78
2023-05-24T20:54:17.130Z,99634.09
2023-05-24T20:56:43.974Z,99632.28
2023-05-24T20:59:10.914Z,99628.41
2023-05-24T21:01:37.885Z,99631.88
2023-05-24T21:04:04.848Z,99633.06
2023-05-24T21:06:34.171Z,99630.09
2023-05-24T21:09:01.893Z,99624.13
2023-05-24T21:11:29.574Z,99622.16
2023-05-24T21:13:56.848Z,99624.97
2023-05-24T21:16:24.399Z,99621.63
2023-05-24T21:18:51.935Z,99623.13
2023-05-24T21:21:19.173Z,99615.25
2023-05-24T21:23:46.353Z,99625.09
2023-05-24T21:26:13.145Z,99628.59
2023-05-24T21:28:39.974Z,99632.09
2023-05-24T21:31:07.331Z,99631.44
2023-05-24T21:33:34.170Z,99618.59
2023-05-24T21:36:03.196Z,99624.81
2023-05-24T21:38:30.105Z,99621.94
2023-05-24T21:40:57.039Z,99629.94
2023-05-24T21:43:24.210Z,99623.41
2023-05-24T21:45:51.087Z,99625.59
2023-05-24T21:48:18.269Z,99631.59
2023-05-24T21:50:45.195Z,99630.38
2023-05-24T21:53:12.161Z,99625.31
2023-05-24T21:55:39.050Z,99626.22
2023-05-24T21:58:06.263Z,99631.94
2023-05-24T22:00:33.264Z,99633.09
2023-05-24T22:03:00.276Z,99632.78
2023-05-24T22:05:28.072Z,99632.66
2023-05-24T22:07:55.027Z,99636.09
2023-05-24T22:10:22.049Z,99627.25
2023-05-24T22:12:49.084Z,99630.47
2023-05-24T22:15:16.316Z,99628.91
2023-05-24T22:17:43.254Z,99633.56
2023-05-24T22:20:11.009Z,99632.38
2023-05-24T22:22:40.278Z,99638.34
2023-05-24T22:25:08.816Z,99634.00
2023-05-24T22:27:36.033Z,99625.88
2023-05-24T22:30:03.130Z,99631.56
2023-05-24T22:32:30.005Z,99642.09
2023-05-24T22:34:56.897Z,99641.84
2023-05-24T22:37:23.744Z,99640.97
2023-05-24T22:39:51.190Z,99635.91
2023-05-24T22:42:18.038Z,99635.34
2023-05-24T22:44:46.428Z,99636.28
2023-05-24T22:47:14.144Z,99629.88
2023-05-24T22:49:41.404Z,99633.28
2023-05-24T22:52:09.069Z,99634.56
2023-05-24T22:54:36.371Z,99639.09
2023-05-24T22:57:03.244Z,99639.97
2023-05-24T22:59:32.406Z,99636.13
2023-05-24T23:01:59.559Z,99635.94
2023-05-24T23:04:27.744Z,99640.16
2023-05-24T23:06:55.093Z,99630.28
2023-05-24T23:09:41.608Z,99627.41
2023-05-24T23:12:09.316Z,99625.00
2023-05-24T23:14:41.570Z,99628.31
2023-05-24T23:17:13.621Z,99631.97
2023-05-24T23:19:43.648Z,99632.97
2023-05-24T23:22:18.550Z,99632.47
2023-05-24T23:24:47.651Z,99640.31
2023-05-24T23:27:14.705Z,99638.47
2023-05-24T23:29:41.593Z,99638.03
2023-05-24T23:32:09.025Z,99635.50
2023-05-24T23:34:36.472Z,99633.75
2023-05-24T23:37:04.630Z,99628.78
2023-05-24T23:39:31.616Z,99628.59
2023-05-24T23:41:58.454Z,99637.19
2023-05-24T23:44:25.936Z,99630.53
2023-05-24T23:46:53.894Z,99626.66
2023-05-24T23:49:20.981Z,99632.63
2023-05-24T23:51:48.029Z,99629.88
2023-05-24T23:54:15.183Z,99629.88
2023-05-24T23:56:42.948Z,99625.69
2023-05-24T23:59:10.498Z,99630.88
